Time;durP1;ratioP1;P1;durP2;ratioP2;P2;SDS_P1;SDS_P2;PMS_P1;PMS_P2;Temp;Humidity;BMP_temperature;BMP_pressure;BME280_temperature;BME280_humidity;BME280_pressure;Samples;Min_cycle;Max_cycle;Signal;HPM_P1;HPM_P2
2023/05/29 00:00:20;;;;;;;14.18;5.50;;;;;;;12.80;91.29;102279.66;4882421;29;20493;-88
2023/05/29 00:02:46;;;;;;;15.90;5.43;;;;;;;12.64;90.78;102267.66;4898574;29;20047;-88
2023/05/29 00:05:12;;;;;;;14.95;5.22;;;;;;;12.60;91.09;102265.97;4882343;29;20123;-88
2023/05/29 00:07:38;;;;;;;15.38;4.88;;;;;;;12.56;91.71;102278.13;4881447;29;20072;-87
2023/05/29 00:10:08;;;;;;;13.93;4.30;;;;;;;12.52;90.64;102289.47;4899557;29;20052;-87
2023/05/29 00:12:34;;;;;;;14.88;5.05;;;;;;;12.44;90.46;102283.44;4879869;29;20044;-87
2023/05/29 00:15:00;;;;;;;12.77;4.88;;;;;;;12.43;91.11;102286.94;4900165;29;20044;-87
2023/05/29 00:17:25;;;;;;;14.88;4.45;;;;;;;12.35;89.88;102285.28;4883156;29;20588;-88
2023/05/29 00:19:51;;;;;;;13.85;4.10;;;;;;;12.38;90.48;102291.31;4900027;29;20044;-87
2023/05/29 00:22:17;;;;;;;13.98;4.22;;;;;;;12.30;89.93;102295.69;4882323;29;20048;-88
2023/05/29 00:24:45;;;;;;;14.48;4.60;;;;;;;12.27;90.25;102298.34;4900823;29;20068;-87
2023/05/29 00:27:10;;;;;;;13.70;4.53;;;;;;;12.22;89.86;102295.75;4884809;29;20129;-87
2023/05/29 00:29:37;;;;;;;11.57;3.83;;;;;;;12.17;90.34;102291.47;4896658;29;20556;-88
2023/05/29 00:32:04;;;;;;;13.73;3.83;;;;;;;12.14;90.00;102294.09;4900072;29;20043;-87
2023/05/29 00:34:29;;;;;;;15.50;3.65;;;;;;;12.09;89.30;102291.50;4902586;29;20052;-87
2023/05/29 00:36:58;;;;;;;11.82;3.58;;;;;;;12.06;88.61;102290.69;4902881;29;20039;-87
2023/05/29 00:39:23;;;;;;;18.88;3.83;;;;;;;11.98;87.90;102290.72;4903773;29;20038;-88
2023/05/29 00:41:51;;;;;;;14.48;3.50;;;;;;;11.93;88.56;102302.03;4882290;29;20061;-88
2023/05/29 00:44:20;;;;;;;16.15;3.53;;;;;;;11.85;86.95;102302.94;4882067;29;20135;-87
2023/05/29 00:46:48;;;;;;;14.23;3.47;;;;;;;11.78;86.67;102305.56;4884078;29;20036;-88
2023/05/29 00:49:14;;;;;;;12.55;3.60;;;;;;;11.75;87.72;102303.84;4883462;29;20048;-88
2023/05/29 00:51:41;;;;;;;17.40;3.33;;;;;;;11.76;87.33;102317.69;4883521;29;20039;-87
2023/05/29 00:54:09;;;;;;;15.30;3.25;;;;;;;11.66;86.32;102309.06;4883895;29;20072;-87
2023/05/29 00:56:35;;;;;;;11.65;3.30;;;;;;;11.72;88.01;102318.56;4883855;29;20092;-87
2023/05/29 00:59:01;;;;;;;12.13;2.90;;;;;;;11.63;87.42;102316.88;4883200;29;20048;-87
2023/05/29 01:01:27;;;;;;;10.68;2.80;;;;;;;11.63;88.08;102313.41;4882836;29;20041;-88
2023/05/29 01:03:55;;;;;;;12.77;3.05;;;;;;;11.60;87.40;102329.00;4882175;29;20100;-87
2023/05/29 01:06:21;;;;;;;12.80;2.90;;;;;;;11.60;87.07;102334.22;4881712;29;20048;-87
2023/05/29 01:08:46;;;;;;;12.82;2.95;;;;;;;11.48;86.11;102335.09;4883871;29;20056;-87
2023/05/29 01:11:27;;;;;;;11.55;2.75;;;;;;;11.48;87.20;102333.38;4882838;29;20095;-87
2023/05/29 01:13:55;;;;;;;13.32;2.85;;;;;;;11.38;87.88;102330.81;4881574;29;20045;-87
2023/05/29 01:16:29;;;;;;;12.68;2.90;;;;;;;11.43;88.05;102337.72;4881177;29;20116;-86
2023/05/29 01:19:10;;;;;;;16.15;3.30;;;;;;;11.40;87.01;102340.31;4885007;29;20049;-91
2023/05/29 01:21:41;;;;;;;14.77;2.90;;;;;;;11.36;87.11;102338.59;4901059;29;20043;-93
2023/05/29 01:24:26;;;;;;;13.73;3.08;;;;;;;11.33;86.82;102337.72;4891532;29;20045;-93
2023/05/29 01:26:57;;;;;;;12.93;2.80;;;;;;;11.30;87.93;102345.53;4885206;29;20047;-92
2023/05/29 01:29:27;;;;;;;14.02;3.00;;;;;;;11.22;88.33;102329.13;4882717;29;20166;-92
2023/05/29 01:31:54;;;;;;;16.02;3.35;;;;;;;11.20;87.71;102329.13;4884536;29;20049;-93
2023/05/29 01:34:23;;;;;;;12.35;2.85;;;;;;;11.15;88.06;102330.88;4884412;29;20478;-92
2023/05/29 01:36:48;;;;;;;12.05;3.05;;;;;;;11.17;88.75;102334.34;4882184;29;20052;-92
2023/05/29 01:39:15;;;;;;;10.80;2.83;;;;;;;11.12;88.21;102337.81;4882876;29;20037;-92
2023/05/29 01:41:45;;;;;;;11.45;2.72;;;;;;;11.08;88.33;102332.63;4884114;29;20057;-92
2023/05/29 01:44:12;;;;;;;16.27;3.05;;;;;;;11.10;88.70;102340.41;4884777;29;20071;-92
2023/05/29 01:46:39;;;;;;;12.68;3.10;;;;;;;11.05;87.94;102329.19;4883511;29;20037;-93
2023/05/29 01:49:05;;;;;;;12.48;2.45;;;;;;;11.09;88.96;102336.06;4882001;29;20040;-93
2023/05/29 01:51:31;;;;;;;13.02;2.88;;;;;;;11.01;88.43;102324.84;4881678;29;20278;-92
2023/05/29 01:53:58;;;;;;;15.93;2.95;;;;;;;11.03;88.59;102336.97;4884131;29;20417;-93
2023/05/29 01:56:26;;;;;;;12.82;2.92;;;;;;;10.98;86.88;102337.84;4884516;29;20044;-93
2023/05/29 01:58:55;;;;;;;11.52;2.40;;;;;;;10.92;87.45;102325.72;4885534;29;20032;-94
2023/05/29 02:01:21;;;;;;;12.05;3.10;;;;;;;10.94;88.83;102331.78;4882820;29;20116;-92
2023/05/29 02:03:47;;;;;;;13.38;2.88;;;;;;;10.90;88.88;102324.00;4881392;29;20044;-92
2023/05/29 02:06:12;;;;;;;14.30;2.65;;;;;;;10.90;88.52;102330.06;4883002;29;21121;-93
2023/05/29 02:08:38;;;;;;;9.77;2.67;;;;;;;10.86;87.93;102336.09;4882114;29;20044;-93
2023/05/29 02:11:03;;;;;;;14.02;2.72;;;;;;;10.79;88.17;102323.13;4882969;29;20450;-93
2023/05/29 02:13:29;;;;;;;12.15;2.85;;;;;;;10.76;89.00;102323.16;4883717;29;20064;-92
2023/05/29 02:15:54;;;;;;;12.38;2.53;;;;;;;10.77;88.19;102333.53;4884727;29;20121;-92
2023/05/29 02:18:23;;;;;;;18.08;2.60;;;;;;;10.69;87.88;102327.47;4886922;29;20047;-92
2023/05/29 02:20:48;;;;;;;10.40;2.28;;;;;;;10.71;89.25;102330.94;4884436;29;20041;-93
2023/05/29 02:23:15;;;;;;;16.25;2.92;;;;;;;10.61;88.67;102332.66;4885712;29;20805;-93
2023/05/29 02:25:43;;;;;;;13.07;2.60;;;;;;;10.57;88.32;102324.91;4882529;29;20028;-92
2023/05/29 02:28:08;;;;;;;12.82;2.58;;;;;;;10.53;88.49;102336.09;4883089;29;20033;-92
2023/05/29 02:30:35;;;;;;;12.60;2.72;;;;;;;10.54;89.29;102335.25;4883029;29;20055;-93
2023/05/29 02:33:03;;;;;;;12.10;2.88;;;;;;;10.50;88.67;102344.78;4886048;29;20383;-92
2023/05/29 02:35:28;;;;;;;9.60;2.35;;;;;;;10.44;89.79;102336.13;4884030;29;20189;-92
2023/05/29 02:37:54;;;;;;;11.77;2.45;;;;;;;10.48;89.71;102351.66;4884380;29;20474;-93
2023/05/29 02:40:20;;;;;;;16.77;2.65;;;;;;;10.41;89.01;102349.06;4883100;29;21536;-92
2023/05/29 02:42:46;;;;;;;15.25;2.65;;;;;;;10.41;90.15;102342.16;4899302;29;20048;-92
2023/05/29 02:45:12;;;;;;;13.50;2.50;;;;;;;10.46;90.25;102355.13;4890905;29;20059;-93
2023/05/29 02:47:38;;;;;;;15.85;2.80;;;;;;;10.39;88.95;102351.66;4903586;29;20046;-94
2023/05/29 02:50:04;;;;;;;10.05;2.15;;;;;;;10.38;88.57;102351.66;4887114;29;21022;-92
2023/05/29 02:52:30;;;;;;;14.10;2.38;;;;;;;10.45;90.73;102371.53;4903792;29;20047;-93
2023/05/29 02:54:56;;;;;;;11.90;2.45;;;;;;;10.38;90.63;102356.81;4903743;29;20044;-93
2023/05/29 02:57:22;;;;;;;12.63;2.58;;;;;;;10.36;90.42;102353.38;4901027;29;20041;-92
2023/05/29 02:59:47;;;;;;;11.43;2.30;;;;;;;10.35;90.94;102351.66;4904211;29;20040;-92
2023/05/29 03:02:13;;;;;;;12.80;2.38;;;;;;;10.39;89.94;102361.16;4884023;29;20043;-93
2023/05/29 03:04:38;;;;;;;13.98;2.88;;;;;;;10.30;90.80;102354.25;4903498;29;20036;-93
2023/05/29 03:07:04;;;;;;;13.50;2.45;;;;;;;10.30;91.60;102352.50;4904395;29;20044;-92
2023/05/29 03:09:30;;;;;;;14.95;3.05;;;;;;;10.32;91.30;102359.41;4885435;29;20040;-93
2023/05/29 03:11:55;;;;;;;16.70;2.72;;;;;;;10.30;91.26;102349.06;4905301;29;20044;-91
2023/05/29 03:14:21;;;;;;;14.45;2.75;;;;;;;10.28;91.02;102355.97;4885902;29;20147;-92
2023/05/29 03:16:47;;;;;;;11.05;2.70;;;;;;;10.21;90.17;102360.28;4888574;29;20044;-92
2023/05/29 03:19:13;;;;;;;13.73;2.50;;;;;;;10.18;91.36;102364.56;4891174;29;20052;-92
2023/05/29 03:21:38;;;;;;;15.70;3.00;;;;;;;10.14;92.09;102349.84;4883789;29;20423;-93
2023/05/29 03:24:05;;;;;;;14.45;2.72;;;;;;;10.14;92.67;102355.91;4901704;29;20055;-93
2023/05/29 03:26:31;;;;;;;16.83;2.30;;;;;;;10.11;93.03;102358.47;4904695;29;20079;-92
2023/05/29 03:28:56;;;;;;;9.90;2.50;;;;;;;10.10;93.00;102358.50;4888798;29;20051;-93
2023/05/29 03:31:21;;;;;;;14.35;2.65;;;;;;;10.11;92.40;102365.38;4903624;29;20494;-92
2023/05/29 03:33:48;;;;;;;14.57;2.90;;;;;;;10.05;93.17;102362.78;4886175;29;20497;-92
2023/05/29 03:36:13;;;;;;;9.90;2.40;;;;;;;10.09;92.78;102380.94;4886452;29;20040;-93
2023/05/29 03:38:39;;;;;;;15.98;3.60;;;;;;;10.06;92.91;102369.69;4883777;29;20127;-87
2023/05/29 03:41:05;;;;;;;13.68;2.80;;;;;;;10.04;93.23;102363.63;4882287;29;20036;-87
2023/05/29 03:43:30;;;;;;;16.33;2.58;;;;;;;10.06;93.13;102373.16;4881386;29;20048;-87
2023/05/29 03:45:56;;;;;;;14.30;2.67;;;;;;;9.99;93.77;102355.00;4900878;29;20130;-87
2023/05/29 03:48:21;;;;;;;13.98;2.83;;;;;;;9.96;93.72;102358.47;4883429;29;20406;-87
2023/05/29 03:50:46;;;;;;;14.38;2.70;;;;;;;10.03;94.33;102360.16;4881265;29;20039;-87
2023/05/29 03:53:12;;;;;;;13.30;3.17;;;;;;;10.06;94.43;102367.97;4883523;29;20493;-87
2023/05/29 03:55:38;;;;;;;15.32;2.83;;;;;;;10.03;93.83;102372.28;4884305;29;20040;-87
2023/05/29 03:58:03;;;;;;;15.40;3.08;;;;;;;10.07;93.60;102381.78;4899258;29;21459;-87
2023/05/29 04:00:29;;;;;;;16.85;2.80;;;;;;;10.06;93.17;102382.66;4882625;29;20036;-87
2023/05/29 04:02:56;;;;;;;11.88;2.60;;;;;;;10.02;93.62;102384.38;4882834;29;20045;-86
2023/05/29 04:05:21;;;;;;;16.13;3.05;;;;;;;10.01;94.44;102374.00;4882034;29;20141;-87
2023/05/29 04:07:47;;;;;;;14.30;3.05;;;;;;;10.12;94.56;102388.72;4898901;29;20115;-87
2023/05/29 04:10:13;;;;;;;15.10;2.72;;;;;;;10.05;93.68;102380.91;4900676;29;20044;-87
2023/05/29 04:12:38;;;;;;;13.45;2.95;;;;;;;10.08;93.44;102392.16;4882513;29;20036;-87
2023/05/29 04:15:05;;;;;;;15.50;2.60;;;;;;;10.10;93.85;102398.19;4899914;29;20120;-87
2023/05/29 04:17:30;;;;;;;16.88;2.85;;;;;;;10.08;93.98;102397.34;4900101;29;20082;-87
2023/05/29 04:19:55;;;;;;;13.88;2.53;;;;;;;10.04;94.60;102393.00;4899128;29;20107;-87
2023/05/29 04:22:21;;;;;;;13.55;2.83;;;;;;;10.09;94.39;102403.41;4898862;29;20063;-87
2023/05/29 04:24:46;;;;;;;14.95;3.33;;;;;;;10.12;94.51;102393.88;4899397;29;20159;-87
2023/05/29 04:27:14;;;;;;;12.43;3.13;;;;;;;10.12;93.69;102401.66;4900105;29;20095;-87
2023/05/29 04:29:42;;;;;;;11.40;2.58;;;;;;;10.10;94.52;102393.00;4882344;29;20040;-86
2023/05/29 04:32:09;;;;;;;11.88;2.40;;;;;;;10.17;93.71;102401.69;4883644;29;20135;-87
2023/05/29 04:34:35;;;;;;;16.33;2.72;;;;;;;10.19;94.10;102403.44;4880176;29;20051;-87
2023/05/29 04:37:04;;;;;;;12.50;2.60;;;;;;;10.17;92.88;102397.38;4896736;29;20040;-87
2023/05/29 04:39:30;;;;;;;12.10;3.20;;;;;;;10.25;94.36;102398.28;4900245;29;20036;-88
2023/05/29 04:41:58;;;;;;;15.07;3.13;;;;;;;10.26;92.03;102401.75;4882698;29;20052;-88
2023/05/29 04:44:25;;;;;;;12.38;2.38;;;;;;;10.29;92.99;102404.34;4899413;29;20510;-87
2023/05/29 04:46:51;;;;;;;16.83;2.65;;;;;;;10.34;92.68;102415.59;4899690;29;20032;-88
2023/05/29 04:49:17;;;;;;;14.75;2.80;;;;;;;10.35;93.15;102408.69;4899194;29;20036;-87
2023/05/29 04:51:42;;;;;;;14.00;2.35;;;;;;;10.37;91.09;102404.38;4879375;29;20036;-88
2023/05/29 04:54:09;;;;;;;15.60;2.50;;;;;;;10.37;91.40;102400.06;4882288;29;20055;-88
2023/05/29 04:56:35;;;;;;;16.38;2.55;;;;;;;10.39;92.17;102397.44;4899482;29;20040;-87
2023/05/29 04:59:00;;;;;;;17.80;2.90;;;;;;;10.42;91.83;102400.06;4900135;29;20047;-87
2023/05/29 05:01:26;;;;;;;20.42;2.80;;;;;;;10.53;90.85;102404.38;4895335;29;20032;-88
2023/05/29 05:03:55;;;;;;;13.93;2.47;;;;;;;10.50;90.52;102396.63;4899706;29;20040;-88
2023/05/29 05:06:22;;;;;;;13.70;3.08;;;;;;;10.61;89.06;102412.19;4885096;29;20036;-88
2023/05/29 05:08:47;;;;;;;14.65;2.80;;;;;;;10.62;90.09;102404.41;4899540;29;20036;-88
2023/05/29 05:11:13;;;;;;;16.95;2.70;;;;;;;10.65;89.72;102407.00;4883452;29;21397;-88
2023/05/29 05:13:39;;;;;;;16.98;2.70;;;;;;;10.67;87.86;102410.47;4886447;29;20078;-88
2023/05/29 05:16:07;;;;;;;15.98;2.90;;;;;;;10.71;90.24;102413.94;4901138;29;20071;-87
2023/05/29 05:18:33;;;;;;;18.65;2.80;;;;;;;10.74;88.13;102419.09;4902886;29;20054;-88
2023/05/29 05:20:58;;;;;;;15.27;2.50;;;;;;;10.80;90.34;102419.09;4884335;29;20036;-88
2023/05/29 05:23:24;;;;;;;12.13;2.92;;;;;;;10.90;89.12;102428.63;4901373;29;20519;-88
2023/05/29 05:25:49;;;;;;;14.93;2.80;;;;;;;10.95;88.53;102442.47;4884704;29;20417;-88
2023/05/29 05:28:15;;;;;;;13.48;2.90;;;;;;;10.94;88.40;102434.69;4901756;29;20129;-88
2023/05/29 05:30:43;;;;;;;13.90;2.72;;;;;;;10.97;88.03;102426.91;4899922;29;20036;-88
2023/05/29 05:33:11;;;;;;;19.27;3.13;;;;;;;11.15;87.84;102439.88;4901650;29;20040;-88
2023/05/29 05:35:37;;;;;;;17.02;2.75;;;;;;;11.20;85.46;102443.31;4898879;29;20104;-89
2023/05/29 05:38:02;;;;;;;15.68;3.33;;;;;;;11.23;87.18;102434.69;4883644;29;20424;-85
2023/05/29 05:40:28;;;;;;;17.30;3.00;;;;;;;11.35;87.46;102434.66;4883508;29;20044;-88
2023/05/29 05:42:53;;;;;;;15.30;2.88;;;;;;;11.41;86.72;102432.91;4882380;29;20071;-89
2023/05/29 05:45:19;;;;;;;15.30;3.05;;;;;;;11.48;84.47;102429.44;4884324;29;20040;-89
2023/05/29 05:47:44;;;;;;;13.63;2.58;;;;;;;11.56;87.31;102434.63;4892914;29;20040;-89
2023/05/29 05:50:10;;;;;;;19.25;2.97;;;;;;;11.63;85.28;102431.16;4879460;29;20054;-88
2023/05/29 05:52:35;;;;;;;14.57;2.88;;;;;;;11.72;83.80;102427.66;4880080;29;20039;-88
2023/05/29 05:55:01;;;;;;;14.45;2.53;;;;;;;11.82;83.50;102427.66;4888384;29;20064;-89
2023/05/29 05:57:27;;;;;;;17.63;3.20;;;;;;;11.96;82.24;102427.59;4894886;29;20110;-89
2023/05/29 05:59:52;;;;;;;14.20;2.72;;;;;;;12.02;84.04;102424.09;4895274;29;20127;-89
2023/05/29 06:02:17;;;;;;;10.32;2.63;;;;;;;12.10;79.87;102419.75;4882182;29;20131;-89
2023/05/29 06:04:43;;;;;;;16.75;3.20;;;;;;;12.17;79.61;102429.25;4885676;29;20605;-89
2023/05/29 06:07:09;;;;;;;14.68;2.58;;;;;;;12.25;80.85;102437.88;4901116;29;20051;-89
2023/05/29 06:09:34;;;;;;;16.33;3.08;;;;;;;12.26;79.17;102439.59;4882316;29;20040;-90
2023/05/29 06:12:00;;;;;;;13.27;2.72;;;;;;;12.26;78.72;102427.47;4884163;29;20036;-90
2023/05/29 06:14:25;;;;;;;8.82;2.25;;;;;;;12.36;81.73;102436.06;4901856;29;20136;-88
2023/05/29 06:16:51;;;;;;;15.18;2.60;;;;;;;12.51;78.85;102430.78;4881447;29;20044;-89
2023/05/29 06:19:17;;;;;;;11.20;2.55;;;;;;;12.67;77.67;102441.97;4898484;29;20036;-89
2023/05/29 06:21:42;;;;;;;12.98;2.67;;;;;;;12.72;77.05;102442.78;4900870;29;20044;-89
2023/05/29 06:24:08;;;;;;;13.35;2.80;;;;;;;12.66;75.13;102448.03;4885168;29;20040;-88
2023/05/29 06:26:34;;;;;;;12.35;2.35;;;;;;;12.57;77.38;102448.09;4879987;29;20032;-88
2023/05/29 06:28:59;;;;;;;16.00;2.58;;;;;;;12.57;75.64;102454.16;4872374;29;20072;-89
2023/05/29 06:31:25;;;;;;;15.88;2.75;;;;;;;12.60;77.15;102459.34;4892767;29;20040;-89
2023/05/29 06:33:50;;;;;;;12.77;3.15;;;;;;;12.56;77.13;102442.00;4878889;29;20087;-88
2023/05/29 06:36:16;;;;;;;13.93;2.53;;;;;;;12.68;80.23;102461.03;4891572;29;20245;-88
2023/05/29 06:38:47;;;;;;;11.32;2.63;;;;;;;12.70;76.65;102457.53;4880169;29;20055;-89
2023/05/29 06:41:12;;;;;;;16.38;2.83;;;;;;;12.75;77.27;102452.31;4878987;29;20108;-88
2023/05/29 06:43:37;;;;;;;14.35;2.50;;;;;;;12.89;80.65;102453.97;4892944;29;20083;-89
2023/05/29 06:46:03;;;;;;;15.45;2.42;;;;;;;12.83;73.58;102447.94;4880590;29;20379;-89
2023/05/29 06:48:33;;;;;;;12.00;2.30;;;;;;;12.84;73.71;102442.69;4879908;29;20414;-88
2023/05/29 06:50:58;;;;;;;16.05;2.97;;;;;;;12.98;74.04;102458.22;4877982;29;21263;-89
2023/05/29 06:53:24;;;;;;;15.55;2.28;;;;;;;13.03;72.17;102444.28;4875909;29;20119;-90
2023/05/29 06:55:49;;;;;;;10.93;2.50;;;;;;;13.12;73.21;102456.34;4890256;29;20056;-89
2023/05/29 06:58:15;;;;;;;18.17;3.05;;;;;;;13.24;71.59;102450.19;4895207;29;20040;-89
2023/05/29 07:00:43;;;;;;;11.43;2.35;;;;;;;13.49;72.81;102456.94;4882711;29;20072;-89
2023/05/29 07:03:09;;;;;;;11.93;2.35;;;;;;;13.63;72.13;102457.66;4882176;29;20079;-89
2023/05/29 07:05:34;;;;;;;15.68;2.42;;;;;;;13.81;71.78;102454.84;4884433;29;20108;-88
2023/05/29 07:08:02;;;;;;;13.10;2.30;;;;;;;14.09;74.21;102447.56;4901861;29;20104;-89
2023/05/29 07:10:30;;;;;;;12.00;2.40;;;;;;;14.41;73.50;102457.59;4884970;29;20032;-89
2023/05/29 07:12:55;;;;;;;9.57;2.15;;;;;;;14.56;70.15;102461.75;4883215;29;20048;-89
2023/05/29 07:15:21;;;;;;;10.77;2.35;;;;;;;14.77;69.66;102460.56;4898272;29;20029;-89
2023/05/29 07:17:46;;;;;;;8.32;1.88;;;;;;;14.98;67.80;102455.00;4899015;29;20040;-91
2023/05/29 07:20:14;;;;;;;10.02;2.22;;;;;;;15.02;64.96;102444.47;4901778;29;20517;-91
2023/05/29 07:22:43;;;;;;;11.70;2.30;;;;;;;15.00;69.34;102448.03;4875705;29;20132;-93
2023/05/29 07:25:08;;;;;;;12.88;2.25;;;;;;;15.03;64.55;102461.00;4879803;29;20041;-91
2023/05/29 07:27:55;;;;;;;13.57;2.22;;;;;;;15.01;67.12;102473.25;4892229;29;20040;-92
2023/05/29 07:30:39;;;;;;;12.88;2.75;;;;;;;14.88;62.65;102463.84;4883166;29;20509;-92
2023/05/29 07:33:17;;;;;;;14.77;2.33;;;;;;;14.92;66.50;102473.38;4878590;29;20048;-91
2023/05/29 07:36:01;;;;;;;;;;;;;;;;;;;;;
2023/05/29 07:38:52;;;;;;;;;;;;;;;;;;;;;
2023/05/29 07:41:32;;;;;;;12.45;2.42;;;;;;;15.48;64.73;102477.69;4899537;29;20531;-92
2023/05/29 07:44:01;;;;;;;8.50;2.15;;;;;;;16.07;63.21;102470.47;4882765;29;20044;-91
2023/05/29 07:46:45;;;;;;;9.77;2.33;;;;;;;17.11;58.43;102476.88;4884431;29;20032;-92
2023/05/29 07:49:22;;;;;;;10.27;2.33;;;;;;;17.93;56.08;102469.47;4883560;29;20457;-92
2023/05/29 07:51:53;;;;;;;10.43;2.33;;;;;;;18.64;53.91;102482.22;4898224;29;20068;-92
2023/05/29 07:54:32;;;;;;;12.80;2.20;;;;;;;19.24;49.77;102468.91;4883597;29;20032;-91
2023/05/29 07:57:18;;;;;;;9.15;2.20;;;;;;;19.90;52.19;102470.09;4900035;29;20413;-90
2023/05/29 07:59:49;;;;;;;8.63;2.10;;;;;;;20.00;48.03;102477.59;4885112;29;20477;-91
2023/05/29 08:02:56;;;;;;;;;;;;;;;;;;;;;
2023/05/29 08:05:35;;;;;;;8.93;2.10;;;;;;;19.54;47.86;102481.00;4901457;29;20049;-91
2023/05/29 08:12:07;;;;;;;11.38;2.30;;;;;;;18.86;53.52;102476.25;4914580;29;20051;-95
2023/05/29 08:15:22;;;;;;;;;;;;;;;;;;;;;
2023/05/29 08:18:39;;;;;;;10.48;2.13;;;;;;;18.69;51.55;102483.84;4912351;29;20108;-96
2023/05/29 08:22:08;;;;;;;10.38;2.00;;;;;;;18.52;53.17;102475.56;4915935;29;20047;-95
2023/05/29 08:25:20;;;;;;;11.05;2.03;;;;;;;18.68;53.96;102495.25;4859419;29;20056;-96
2023/05/29 08:28:14;;;;;;;11.95;2.35;;;;;;;18.68;50.43;102483.88;4887101;29;20072;-96
2023/05/29 08:31:07;;;;;;;;;;;;;;;18.86;50.24;102492.03;4899430;29;20127;-96
2023/05/29 08:34:10;;;;;;;12.00;2.65;;;;;;;18.45;50.94;102488.03;4904189;29;19916;-96
2023/05/29 08:37:25;;;;;;;9.63;2.38;;;;;;;18.19;52.17;102489.69;4883530;29;20060;-96
2023/05/29 08:40:46;;;;;;;;;;;;;;;;;;;;;
2023/05/29 08:44:07;;;;;;;;;;;;;;;;;;;;;
2023/05/29 08:47:30;;;;;;;12.27;2.40;;;;;;;18.06;51.78;102499.69;4860081;29;20144;-96
2023/05/29 09:01:30;;;;;;;8.20;2.53;;;;;;;17.95;52.45;102493.88;4808091;29;20050;-96
2023/05/29 09:04:56;;;;;;;11.43;2.45;;;;;;;17.87;52.67;102498.50;4853104;29;20041;-96
2023/05/29 09:08:07;;;;;;;9.75;2.10;;;;;;;17.89;51.76;102496.66;4911123;29;20032;-95
2023/05/29 09:11:26;;;;;;;11.88;2.70;;;;;;;17.93;53.46;102499.19;4911742;29;20095;-96
2023/05/29 09:25:12;;;;;;;11.85;2.45;;;;;;;18.44;51.62;102502.06;4819799;29;20071;-96
2023/05/29 09:28:08;;;;;;;10.45;2.83;;;;;;;18.40;49.77;102505.69;4771717;30;20056;-96
2023/05/29 09:35:15;;;;;;;;;;;;;;;;;;;;;
2023/05/29 09:37:50;;;;;;;11.77;2.50;;;;;;;17.86;51.09;102497.63;4795604;29;20099;-96
2023/05/29 09:41:05;;;;;;;9.55;2.47;;;;;;;17.87;52.58;102488.00;4788326;29;20053;-95
2023/05/29 09:43:54;;;;;;;9.40;2.35;;;;;;;18.05;51.97;102487.47;4801356;29;20280;-93
2023/05/29 09:46:28;;;;;;;12.50;2.78;;;;;;;18.09;51.81;102495.22;4894569;29;20036;-94
2023/05/29 09:49:38;;;;;;;8.32;2.20;;;;;;;18.15;53.07;102502.06;4895498;29;20216;-93
2023/05/29 09:52:57;;;;;;;10.00;2.72;;;;;;;18.21;52.59;102493.16;4893442;29;20167;-95
2023/05/29 09:58:59;;;;;;;10.95;2.40;;;;;;;18.46;52.10;102496.78;4888720;29;20131;-94
2023/05/29 10:01:52;;;;;;;;;;;;;;;18.56;51.44;102500.84;4885398;29;20069;-94
2023/05/29 10:05:05;;;;;;;9.02;2.65;;;;;;;18.49;51.46;102492.28;4887000;29;19915;-94
2023/05/29 10:07:37;;;;;;;11.57;2.65;;;;;;;18.47;51.21;102483.59;4886436;29;20045;-93
2023/05/29 10:10:58;;;;;;;11.98;3.03;;;;;;;18.58;51.98;102493.78;4886386;29;20076;-95
2023/05/29 10:17:35;;;;;;;8.30;2.42;;;;;;;18.68;51.20;102489.13;4890362;29;20083;-96
2023/05/29 10:27:01;;;;;;;12.15;2.58;;;;;;;18.89;51.82;102476.19;4884771;29;20041;-94
2023/05/29 10:30:09;;;;;;;12.13;2.65;;;;;;;18.97;50.65;102490.84;4885337;29;20284;-95
2023/05/29 10:33:11;;;;;;;8.10;2.40;;;;;;;19.03;52.37;102486.25;4885879;29;20033;-94
2023/05/29 10:36:11;;;;;;;;;;;;;;;;;;;;;
2023/05/29 10:39:23;;;;;;;10.80;2.70;;;;;;;19.19;48.78;102466.41;4883169;29;20029;-95
2023/05/29 10:42:53;;;;;;;9.02;2.67;;;;;;;19.24;50.30;102467.09;4879226;29;20147;-94
2023/05/29 10:46:14;;;;;;;9.90;2.75;;;;;;;19.31;50.08;102488.81;4892967;29;20044;-94
2023/05/29 10:49:38;;;;;;;9.05;2.50;;;;;;;19.27;49.99;102460.88;4867128;29;20041;-94
2023/05/29 10:52:57;;;;;;;10.20;2.50;;;;;;;19.26;51.18;102465.28;4844802;29;20045;-94
2023/05/29 10:55:51;;;;;;;12.95;3.05;;;;;;;19.43;51.13;102464.72;4859146;29;20041;-94
2023/05/29 10:59:01;;;;;;;;;;;;;;;;;;;;;
2023/05/29 11:01:50;;;;;;;7.80;2.53;;;;;;;19.32;49.59;102469.47;4885526;29;20464;-90
2023/05/29 11:04:47;;;;;;;9.23;2.55;;;;;;;19.39;48.77;102473.63;4878448;29;20043;-90
2023/05/29 11:07:52;;;;;;;9.23;2.95;;;;;;;19.24;48.69;102463.63;4881277;29;20556;-89
2023/05/29 11:11:03;;;;;;;;;;;;;;;;;;;;;
2023/05/29 11:13:40;;;;;;;12.27;2.70;;;;;;;19.01;49.03;102445.13;4883224;29;20044;-91
2023/05/29 11:16:36;;;;;;;6.53;2.38;;;;;;;19.23;51.75;102462.78;4876245;29;20052;-90
2023/05/29 11:20:12;;;;;;;7.88;2.72;;;;;;;19.37;49.88;102456.19;4884457;29;20138;-90
2023/05/29 11:23:09;;;;;;;;;;;;;;;19.65;49.11;102462.25;4814726;29;20042;-90
2023/05/29 11:25:46;;;;;;;8.93;2.60;;;;;;;19.39;47.78;102459.59;4816902;29;20766;-91
2023/05/29 11:28:27;;;;;;;11.65;2.83;;;;;;;19.29;48.19;102459.94;4803146;29;20628;-91
2023/05/29 11:31:16;;;;;;;10.32;2.83;;;;;;;19.28;49.94;102457.34;4802113;29;20066;-90
2023/05/29 11:34:29;;;;;;;;;;;;;;;;;;;;;
2023/05/29 11:37:20;;;;;;;7.90;2.58;;;;;;;19.43;50.64;102453.34;4883709;29;20205;-90
2023/05/29 11:39:46;;;;;;;9.38;2.78;;;;;;;19.45;48.39;102446.25;4884475;29;20101;-90
2023/05/29 11:42:29;;;;;;;8.35;2.40;;;;;;;19.39;50.02;102442.06;4882456;29;20153;-89
2023/05/29 11:45:26;;;;;;;9.60;3.00;;;;;;;19.42;49.24;102452.47;4880480;29;20040;-92
2023/05/29 11:48:26;;;;;;;8.32;2.88;;;;;;;19.30;48.60;102447.66;4880144;29;20048;-90
2023/05/29 11:51:06;;;;;;;6.65;2.70;;;;;;;19.26;45.35;102454.78;4882826;29;20058;-90
2023/05/29 11:53:43;;;;;;;7.78;2.45;;;;;;;19.31;47.42;102454.63;4884598;29;20047;-90
2023/05/29 11:56:40;;;;;;;8.00;2.50;;;;;;;19.46;50.09;102443.59;4881308;29;20044;-90
2023/05/29 11:59:34;;;;;;;7.78;2.40;;;;;;;19.71;48.43;102452.34;4875237;29;20418;-89
2023/05/29 12:02:46;;;;;;;6.88;3.00;;;;;;;19.82;48.54;102436.16;4885478;29;20041;-89
2023/05/29 12:05:14;;;;;;;9.18;2.55;;;;;;;19.70;47.22;102440.09;4882336;29;20052;-90
2023/05/29 12:08:00;;;;;;;11.77;3.00;;;;;;;19.63;48.88;102448.28;4882722;29;20036;-90
2023/05/29 12:10:39;;;;;;;8.02;2.90;;;;;;;19.49;46.80;102438.25;4886606;29;20535;-90
2023/05/29 12:13:18;;;;;;;;;;;;;;;;;;;;;
2023/05/29 12:15:47;;;;;;;7.90;2.65;;;;;;;19.53;46.75;102441.59;4884114;29;20639;-90
2023/05/29 12:18:33;;;;;;;9.77;2.85;;;;;;;19.46;46.79;102434.81;4883299;29;20049;-90
2023/05/29 12:21:05;;;;;;;6.63;2.40;;;;;;;19.53;49.94;102438.97;4899117;29;20710;-90
2023/05/29 12:23:30;;;;;;;9.65;2.63;;;;;;;19.55;47.61;102445.03;4886685;29;20068;-90
2023/05/29 12:26:07;;;;;;;8.30;2.80;;;;;;;19.43;46.39;102450.72;4889845;29;20041;-90
2023/05/29 12:28:32;;;;;;;8.43;2.90;;;;;;;19.30;45.94;102440.63;4888565;29;20044;-90
2023/05/29 12:31:00;;;;;;;8.65;2.78;;;;;;;19.27;46.82;102442.47;4886091;29;20043;-90
2023/05/29 12:33:32;;;;;;;9.27;2.92;;;;;;;19.27;47.31;102443.34;4888869;29;20112;-89
2023/05/29 12:36:09;;;;;;;10.40;3.00;;;;;;;19.20;48.13;102436.56;4886831;29;20041;-90
2023/05/29 12:38:48;;;;;;;9.45;2.85;;;;;;;19.23;46.98;102441.75;4888831;29;20130;-90
2023/05/29 12:41:33;;;;;;;9.20;2.50;;;;;;;19.19;46.71;102434.84;4887540;29;20040;-89
2023/05/29 12:44:01;;;;;;;7.75;2.80;;;;;;;19.14;48.53;102435.94;4888615;29;20072;-90
2023/05/29 12:46:27;;;;;;;8.18;2.60;;;;;;;19.17;49.30;102446.34;4889230;29;20032;-89
2023/05/29 12:49:14;;;;;;;8.20;2.70;;;;;;;19.34;48.33;102444.00;4889142;29;20044;-89
2023/05/29 12:51:53;;;;;;;;;;;;;;;;;;;;;
2023/05/29 12:54:29;;;;;;;10.02;2.70;;;;;;;19.27;47.94;102447.75;4889020;29;20029;-90
2023/05/29 12:57:01;;;;;;;8.48;2.80;;;;;;;19.22;46.76;102441.78;4887395;29;20033;-89
2023/05/29 12:59:35;;;;;;;10.48;2.95;;;;;;;19.28;47.85;102447.69;4888462;29;20562;-90